Time;durP1;ratioP1;P1;durP2;ratioP2;P2;SDS_P1;SDS_P2;PMS_P1;PMS_P2;Temp;Humidity;BMP_temperature;BMP_pressure;BME280_temperature;BME280_humidity;BME280_pressure;Samples;Min_cycle;Max_cycle;Signal;HPM_P1;HPM_P2
2024/01/09 00:01:43;;;;;;;22.60;12.67;;;-4.60;91.40;;;;;;5056491;28;20196;-79
2024/01/09 00:04:10;;;;;;;22.83;13.20;;;-4.70;91.20;;;;;;5049853;28;20285;-80
2024/01/09 00:06:38;;;;;;;20.07;11.73;;;-4.70;91.30;;;;;;5044473;28;20201;-80
2024/01/09 00:09:05;;;;;;;21.73;13.07;;;-4.60;91.10;;;;;;5060153;28;20204;-80
2024/01/09 00:11:31;;;;;;;21.90;12.23;;;-4.60;90.90;;;;;;5057469;28;20667;-80
2024/01/09 00:13:58;;;;;;;20.73;12.23;;;-4.60;90.60;;;;;;5047689;28;20195;-79
2024/01/09 00:16:25;;;;;;;22.30;12.93;;;-4.60;90.70;;;;;;5056834;28;20199;-79
2024/01/09 00:18:54;;;;;;;24.77;12.87;;;-4.70;90.80;;;;;;5054076;28;20227;-79
2024/01/09 00:21:20;;;;;;;23.30;13.67;;;-4.70;91.10;;;;;;5051383;28;20199;-80
2024/01/09 00:23:49;;;;;;;23.43;12.87;;;-4.70;91.30;;;;;;5050494;28;20632;-79
2024/01/09 00:26:16;;;;;;;20.80;12.87;;;-4.70;91.30;;;;;;5050274;28;20200;-80
2024/01/09 00:28:43;;;;;;;25.53;12.80;;;-4.70;91.10;;;;;;5054750;28;20676;-81
2024/01/09 00:31:09;;;;;;;21.17;12.50;;;-4.70;90.90;;;;;;5054430;28;20202;-80
2024/01/09 00:33:36;;;;;;;21.33;12.07;;;-4.70;91.10;;;;;;5053200;28;20198;-80
2024/01/09 00:36:03;;;;;;;19.97;12.20;;;-4.70;91.10;;;;;;5058696;28;20197;-80
2024/01/09 00:38:30;;;;;;;22.10;13.20;;;-4.70;91.30;;;;;;5058621;28;20229;-80
2024/01/09 00:40:58;;;;;;;21.20;12.23;;;-4.80;91.80;;;;;;5054754;28;20191;-80
2024/01/09 00:43:25;;;;;;;21.70;13.20;;;-4.70;92.30;;;;;;5054326;28;20201;-80
2024/01/09 00:45:51;;;;;;;20.40;11.93;;;-4.70;92.50;;;;;;5050329;28;20200;-80
2024/01/09 00:48:18;;;;;;;22.03;12.93;;;-4.60;92.00;;;;;;5052950;28;20198;-80
2024/01/09 00:50:45;;;;;;;23.40;12.77;;;-4.60;92.40;;;;;;5043017;28;20211;-80
2024/01/09 00:53:12;;;;;;;23.07;12.50;;;-4.60;91.90;;;;;;5053505;28;20683;-79
2024/01/09 00:55:38;;;;;;;21.23;12.53;;;-4.60;91.80;;;;;;5050504;28;20208;-80
2024/01/09 00:58:06;;;;;;;23.77;13.17;;;-4.60;91.70;;;;;;5041853;28;20196;-80
2024/01/09 01:00:33;;;;;;;22.33;12.87;;;-4.50;90.80;;;;;;5057465;28;20207;-80
2024/01/09 01:03:00;;;;;;;21.83;12.50;;;-4.60;91.10;;;;;;5042049;28;20193;-84
2024/01/09 01:05:28;;;;;;;22.37;13.37;;;-4.60;91.20;;;;;;5049724;28;20221;-80
2024/01/09 01:07:55;;;;;;;23.43;12.47;;;-4.60;91.70;;;;;;5057740;28;20201;-80
2024/01/09 01:10:22;;;;;;;22.17;13.13;;;-4.60;91.40;;;;;;5055883;28;20207;-80
2024/01/09 01:12:48;;;;;;;25.80;13.30;;;-4.60;91.50;;;;;;5054624;28;20519;-79
2024/01/09 01:15:17;;;;;;;23.90;13.40;;;-4.70;91.50;;;;;;5054634;28;20199;-80
2024/01/09 01:17:44;;;;;;;22.90;12.80;;;-4.60;91.40;;;;;;5057051;28;20215;-79
2024/01/09 01:20:11;;;;;;;23.90;13.50;;;-4.60;91.30;;;;;;5052945;28;20231;-82
2024/01/09 01:22:38;;;;;;;21.63;12.90;;;-4.60;91.30;;;;;;5056266;28;20202;-80
2024/01/09 01:25:06;;;;;;;22.30;12.37;;;-4.60;91.20;;;;;;5053549;28;20213;-80
2024/01/09 01:27:32;;;;;;;21.47;12.93;;;-4.60;91.50;;;;;;5052684;28;20205;-79
2024/01/09 01:29:59;;;;;;;22.13;12.93;;;-4.60;91.90;;;;;;5051053;28;20209;-81
2024/01/09 01:32:27;;;;;;;21.93;12.07;;;-4.50;91.20;;;;;;5054423;28;20203;-80
2024/01/09 01:34:54;;;;;;;23.40;12.87;;;-4.50;91.00;;;;;;5050171;28;20201;-79
2024/01/09 01:37:21;;;;;;;26.07;13.70;;;-4.50;90.80;;;;;;5051775;28;20247;-80
2024/01/09 01:39:48;;;;;;;24.47;13.60;;;-4.50;90.80;;;;;;5054605;28;20220;-80
2024/01/09 01:42:14;;;;;;;25.17;12.90;;;-4.60;90.90;;;;;;5051178;28;20201;-80
2024/01/09 01:44:41;;;;;;;24.87;13.23;;;-4.60;91.00;;;;;;5059026;28;20200;-80
2024/01/09 01:47:10;;;;;;;25.37;13.63;;;-4.60;90.90;;;;;;5044379;28;20207;-80
2024/01/09 01:49:38;;;;;;;25.80;14.80;;;-4.50;91.10;;;;;;5050169;28;20200;-82
2024/01/09 01:52:06;;;;;;;20.57;12.63;;;-4.60;90.90;;;;;;5055454;28;20200;-80
2024/01/09 01:54:35;;;;;;;23.33;13.17;;;-4.50;90.90;;;;;;5033238;28;20599;-79
2024/01/09 01:57:03;;;;;;;26.20;13.33;;;-4.60;90.90;;;;;;5049958;28;20191;-82
2024/01/09 01:59:33;;;;;;;24.97;13.70;;;-4.60;91.10;;;;;;5052310;28;20223;-80
2024/01/09 02:02:03;;;;;;;25.60;13.87;;;-4.60;91.60;;;;;;5061053;28;20213;-81
2024/01/09 02:04:30;;;;;;;25.97;13.93;;;-4.50;91.00;;;;;;5052687;28;20224;-80
2024/01/09 02:06:59;;;;;;;26.73;14.70;;;-4.60;91.20;;;;;;5057692;28;20666;-80
2024/01/09 02:09:26;;;;;;;25.70;13.53;;;-4.60;91.40;;;;;;5059149;28;20562;-80
2024/01/09 02:11:54;;;;;;;23.93;13.83;;;-4.50;91.00;;;;;;5059743;28;20553;-80
2024/01/09 02:14:20;;;;;;;25.17;14.97;;;-4.50;91.20;;;;;;5053062;28;20830;-80
2024/01/09 02:16:47;;;;;;;25.10;14.43;;;-4.50;90.90;;;;;;5055482;28;20232;-80
2024/01/09 02:19:14;;;;;;;25.33;13.83;;;-4.50;90.90;;;;;;5055970;28;20235;-80
2024/01/09 02:21:43;;;;;;;26.67;14.87;;;-4.50;91.40;;;;;;5054702;28;20198;-80
2024/01/09 02:24:11;;;;;;;27.87;15.50;;;-4.50;91.20;;;;;;5057660;28;20267;-80
2024/01/09 02:26:47;;;;;;;25.27;14.57;;;-4.40;91.00;;;;;;5052532;28;20197;-80
2024/01/09 02:29:19;;;;;;;24.77;14.53;;;-4.50;91.00;;;;;;5055022;28;20229;-80
2024/01/09 02:31:47;;;;;;;26.40;15.00;;;-4.40;91.30;;;;;;5051474;28;20354;-80
2024/01/09 02:34:15;;;;;;;27.93;15.30;;;-4.50;90.80;;;;;;5058130;28;20212;-82
2024/01/09 02:36:42;;;;;;;25.43;15.07;;;-4.60;91.20;;;;;;5052315;28;20216;-80
2024/01/09 02:39:08;;;;;;;26.63;15.00;;;-4.60;91.20;;;;;;5057206;28;20244;-80
2024/01/09 02:41:37;;;;;;;25.87;14.47;;;-4.60;91.40;;;;;;5060817;28;20201;-84
2024/01/09 02:44:04;;;;;;;26.33;14.80;;;-4.50;91.50;;;;;;5058552;28;20201;-81
2024/01/09 02:46:31;;;;;;;27.53;14.27;;;-4.50;91.30;;;;;;5051094;28;20197;-80
2024/01/09 02:48:59;;;;;;;25.70;15.03;;;-4.50;91.40;;;;;;5053998;28;20192;-80
2024/01/09 02:51:26;;;;;;;26.20;14.87;;;-4.70;91.20;;;;;;5052878;28;20212;-81
2024/01/09 02:53:53;;;;;;;26.70;14.53;;;-4.60;91.50;;;;;;5059089;28;20199;-79
2024/01/09 02:56:20;;;;;;;27.77;15.00;;;-4.60;91.70;;;;;;5058869;28;20201;-79
2024/01/09 02:58:47;;;;;;;30.67;15.60;;;-4.60;91.40;;;;;;5058619;28;20197;-81
2024/01/09 03:01:13;;;;;;;25.50;15.00;;;-4.60;91.70;;;;;;5056544;28;20212;-80
2024/01/09 03:03:40;;;;;;;28.10;15.23;;;-4.60;91.50;;;;;;5054825;28;20202;-80
2024/01/09 03:06:08;;;;;;;25.43;14.70;;;-4.60;91.40;;;;;;5061850;28;20201;-80
2024/01/09 03:08:35;;;;;;;27.97;15.20;;;-4.50;91.30;;;;;;5061742;28;20566;-80
2024/01/09 03:11:02;;;;;;;26.30;14.17;;;-4.50;91.30;;;;;;5052846;28;20213;-79
2024/01/09 03:13:29;;;;;;;25.87;14.87;;;-4.50;91.70;;;;;;5062274;28;20200;-80
2024/01/09 03:15:55;;;;;;;29.07;14.60;;;-4.60;91.50;;;;;;5059900;28;20200;-80
2024/01/09 03:18:22;;;;;;;23.67;13.73;;;-4.60;91.60;;;;;;5047240;28;20200;-80
2024/01/09 03:20:49;;;;;;;25.17;14.30;;;-4.60;91.40;;;;;;5047203;28;20221;-81
2024/01/09 03:23:17;;;;;;;27.80;15.30;;;-4.60;91.40;;;;;;5059939;28;20683;-81
2024/01/09 03:25:44;;;;;;;29.73;15.20;;;-4.60;91.50;;;;;;5039608;28;20217;-81
2024/01/09 03:28:11;;;;;;;24.30;13.90;;;-4.50;91.60;;;;;;5055492;28;20197;-81
2024/01/09 03:30:37;;;;;;;26.57;14.07;;;-4.60;91.70;;;;;;5055626;28;20196;-79
2024/01/09 03:33:04;;;;;;;26.43;15.20;;;-4.50;91.40;;;;;;5048779;28;20196;-80
2024/01/09 03:35:31;;;;;;;26.10;15.23;;;-4.50;91.30;;;;;;5057022;28;20197;-80
2024/01/09 03:37:58;;;;;;;27.03;15.07;;;-4.60;91.20;;;;;;5056857;28;20204;-80
2024/01/09 03:40:26;;;;;;;27.20;15.13;;;-4.60;91.50;;;;;;5052497;28;20789;-81
2024/01/09 03:42:54;;;;;;;25.67;14.90;;;-4.60;91.50;;;;;;5050202;28;20200;-80
2024/01/09 03:45:20;;;;;;;25.70;15.10;;;-4.70;91.40;;;;;;5054005;28;20207;-80
2024/01/09 03:47:47;;;;;;;28.40;15.00;;;-4.70;91.60;;;;;;5056186;28;20680;-80
2024/01/09 03:50:14;;;;;;;23.10;13.67;;;-4.70;91.60;;;;;;5053503;28;20674;-79
2024/01/09 03:52:41;;;;;;;26.30;14.77;;;-4.70;91.50;;;;;;5053698;28;20211;-80
2024/01/09 03:55:09;;;;;;;27.40;14.77;;;-4.70;91.40;;;;;;5056274;28;20198;-80
2024/01/09 03:57:37;;;;;;;25.67;14.90;;;-4.70;91.40;;;;;;5057530;28;20228;-79
2024/01/09 04:00:06;;;;;;;25.43;15.40;;;-4.80;91.20;;;;;;5049250;28;20250;-80
2024/01/09 04:02:33;;;;;;;27.60;15.03;;;-4.90;91.60;;;;;;5052512;28;20234;-80
2024/01/09 04:05:06;;;;;;;27.87;15.20;;;-4.80;91.80;;;;;;5059007;28;20219;-80
2024/01/09 04:07:33;;;;;;;27.43;15.10;;;-4.80;91.50;;;;;;5050102;28;20204;-79
2024/01/09 04:09:59;;;;;;;24.90;15.03;;;-4.80;91.70;;;;;;5049567;28;20200;-80
2024/01/09 04:12:26;;;;;;;24.73;14.20;;;-4.80;91.80;;;;;;5059035;28;20193;-80
2024/01/09 04:14:54;;;;;;;31.27;15.83;;;-4.80;91.80;;;;;;5049811;28;20206;-80
2024/01/09 04:17:21;;;;;;;27.33;14.43;;;-4.70;91.40;;;;;;5049403;28;20200;-80
2024/01/09 04:19:48;;;;;;;27.47;14.23;;;-4.90;91.70;;;;;;5052178;28;20216;-80
2024/01/09 04:22:14;;;;;;;28.60;15.43;;;-4.80;91.70;;;;;;5057960;28;20214;-80
2024/01/09 04:24:41;;;;;;;27.30;15.37;;;-4.80;92.00;;;;;;5058913;28;20193;-81
2024/01/09 04:27:08;;;;;;;25.63;14.83;;;-4.70;91.70;;;;;;5061790;28;20218;-79
2024/01/09 04:29:35;;;;;;;26.77;14.73;;;-4.70;91.30;;;;;;5053527;28;20216;-80
2024/01/09 04:32:04;;;;;;;25.90;15.13;;;-4.60;91.40;;;;;;5050508;28;20670;-80
2024/01/09 04:34:30;;;;;;;25.87;14.30;;;-4.70;91.10;;;;;;5051034;28;20204;-80
2024/01/09 04:36:57;;;;;;;26.37;15.00;;;-4.80;91.50;;;;;;5054137;28;20200;-80
2024/01/09 04:39:24;;;;;;;26.37;14.83;;;-4.80;91.50;;;;;;5043666;28;20201;-81
2024/01/09 04:41:51;;;;;;;26.00;15.10;;;-4.80;91.60;;;;;;5052945;28;20204;-79
2024/01/09 04:44:17;;;;;;;27.70;14.57;;;-4.80;91.70;;;;;;5054044;28;20216;-82
2024/01/09 04:46:44;;;;;;;25.90;14.70;;;-4.70;91.60;;;;;;5055048;28;20201;-85
2024/01/09 04:49:12;;;;;;;25.73;14.40;;;-4.80;91.50;;;;;;5055537;28;20203;-79
2024/01/09 04:51:39;;;;;;;27.00;15.70;;;-4.80;91.70;;;;;;5054558;28;20211;-80
2024/01/09 04:54:06;;;;;;;27.87;14.83;;;-4.80;91.80;;;;;;5056468;28;20203;-80
2024/01/09 04:56:33;;;;;;;27.23;14.23;;;-4.80;91.50;;;;;;5056352;28;20212;-79
2024/01/09 04:59:00;;;;;;;26.17;14.73;;;-4.80;91.90;;;;;;5053450;28;20209;-80
2024/01/09 05:01:27;;;;;;;23.10;13.40;;;-4.90;91.80;;;;;;5050336;28;20220;-79
2024/01/09 05:03:53;;;;;;;27.90;14.97;;;-4.90;91.80;;;;;;5052861;28;20226;-80
2024/01/09 05:06:22;;;;;;;26.13;14.97;;;-5.00;91.80;;;;;;5051666;28;20213;-79
2024/01/09 05:08:49;;;;;;;27.33;15.50;;;-5.00;92.10;;;;;;5054077;28;20201;-79
2024/01/09 05:11:16;;;;;;;30.17;16.23;;;-5.00;92.00;;;;;;5051649;28;20208;-82
2024/01/09 05:13:42;;;;;;;26.33;15.30;;;-5.10;92.20;;;;;;5051428;28;20194;-79
2024/01/09 05:16:09;;;;;;;27.73;16.30;;;-5.20;92.30;;;;;;5051996;28;20187;-79
2024/01/09 05:18:36;;;;;;;28.70;15.43;;;-5.20;92.70;;;;;;5036705;28;20204;-79
2024/01/09 05:21:03;;;;;;;27.87;15.50;;;-5.20;92.90;;;;;;5051301;28;20229;-79
2024/01/09 05:23:31;;;;;;;28.23;15.47;;;-5.20;92.90;;;;;;5050884;28;20250;-79
2024/01/09 05:25:58;;;;;;;28.13;16.13;;;-5.20;92.90;;;;;;5054748;28;20227;-78
2024/01/09 05:28:24;;;;;;;28.03;15.43;;;-5.20;92.90;;;;;;5058364;28;20202;-78
2024/01/09 05:33:39;;;;;;;29.33;15.57;;;-5.00;92.80;;;;;;5046076;28;20218;-78
2024/01/09 05:36:08;;;;;;;26.73;15.33;;;-5.00;93.00;;;;;;5057094;28;20200;-85
2024/01/09 05:38:36;;;;;;;26.87;15.13;;;-5.10;92.50;;;;;;5061853;28;20208;-80
2024/01/09 05:41:03;;;;;;;27.77;15.40;;;-5.10;92.90;;;;;;5058919;28;20237;-80
2024/01/09 05:43:29;;;;;;;29.60;16.07;;;-5.20;92.90;;;;;;5061020;28;20209;-79
2024/01/09 05:45:56;;;;;;;26.87;15.00;;;-5.10;92.70;;;;;;5059785;28;20202;-79
2024/01/09 05:48:23;;;;;;;28.93;16.30;;;-5.20;92.80;;;;;;5052893;28;20209;-78
2024/01/09 05:50:50;;;;;;;25.83;15.10;;;-5.20;92.90;;;;;;5058283;28;20207;-78
2024/01/09 05:53:17;;;;;;;27.43;14.00;;;-5.20;92.90;;;;;;5057137;28;20215;-81
2024/01/09 05:55:45;;;;;;;27.43;15.90;;;-5.20;92.90;;;;;;5056301;28;20203;-81
2024/01/09 05:58:12;;;;;;;28.27;15.07;;;-5.30;92.90;;;;;;5056206;28;20207;-81
2024/01/09 06:00:39;;;;;;;25.63;15.07;;;-5.30;92.90;;;;;;5044279;28;20295;-81
2024/01/09 06:03:06;;;;;;;28.33;14.10;;;-5.20;93.10;;;;;;5055663;28;20207;-80
2024/01/09 06:05:33;;;;;;;27.40;15.17;;;-5.30;92.90;;;;;;5049258;28;20343;-81
2024/01/09 06:07:59;;;;;;;29.03;15.00;;;-5.20;92.90;;;;;;5050044;28;20196;-81
2024/01/09 06:10:26;;;;;;;29.33;14.60;;;-5.30;92.90;;;;;;5052240;28;20213;-80
2024/01/09 06:12:54;;;;;;;28.13;15.60;;;-5.20;92.90;;;;;;5052185;28;20202;-81
2024/01/09 06:15:21;;;;;;;25.47;14.37;;;-5.30;92.90;;;;;;5053730;28;20202;-78
2024/01/09 06:17:49;;;;;;;28.67;15.67;;;-5.30;92.90;;;;;;5054384;28;20987;-78
2024/01/09 06:20:16;;;;;;;27.17;15.47;;;-5.20;92.90;;;;;;5055786;28;20278;-79
2024/01/09 06:22:42;;;;;;;26.23;14.43;;;-5.20;92.90;;;;;;5054406;28;20202;-77
2024/01/09 06:25:09;;;;;;;28.63;15.27;;;-5.20;92.90;;;;;;5054790;28;20220;-79
2024/01/09 06:27:36;;;;;;;25.23;15.60;;;-5.20;92.90;;;;;;5054513;28;20200;-78
2024/01/09 06:30:06;;;;;;;30.10;15.77;;;-5.20;92.90;;;;;;5060490;28;20198;-80
2024/01/09 06:32:52;;;;;;;26.27;14.50;;;-5.20;92.90;;;;;;5051061;28;20203;-78
2024/01/09 06:35:20;;;;;;;27.10;15.40;;;-5.10;92.90;;;;;;5052681;28;20191;-79
2024/01/09 06:37:47;;;;;;;30.03;15.93;;;-5.20;92.90;;;;;;5061325;28;20213;-79
2024/01/09 06:40:14;;;;;;;26.07;15.07;;;-5.30;93.50;;;;;;5060490;28;20237;-78
2024/01/09 06:43:07;;;;;;;28.80;15.93;;;-5.40;93.20;;;;;;5050459;28;20206;-79
2024/01/09 06:45:36;;;;;;;25.70;14.80;;;-5.30;92.90;;;;;;5053013;28;20199;-78
2024/01/09 06:48:02;;;;;;;27.67;15.10;;;-5.20;93.20;;;;;;5047939;28;20274;-78
2024/01/09 06:50:29;;;;;;;27.33;15.13;;;-5.20;92.90;;;;;;5058534;28;20204;-79
2024/01/09 06:52:56;;;;;;;27.23;15.17;;;-5.20;92.90;;;;;;5056197;28;20202;-78
2024/01/09 06:55:23;;;;;;;30.73;15.57;;;-5.30;92.90;;;;;;5052276;28;20200;-78
2024/01/09 06:57:50;;;;;;;27.90;14.93;;;-5.20;92.90;;;;;;5055517;28;20200;-78
2024/01/09 07:00:18;;;;;;;27.63;15.40;;;-5.30;92.90;;;;;;5057010;28;20220;-78
2024/01/09 07:02:46;;;;;;;28.03;14.17;;;-5.30;92.90;;;;;;5053562;28;20203;-80
2024/01/09 07:05:13;;;;;;;26.73;15.00;;;-5.30;92.90;;;;;;5061736;28;20220;-81
2024/01/09 07:07:40;;;;;;;29.20;14.83;;;-5.30;92.90;;;;;;5059636;28;20294;-78
2024/01/09 07:10:25;;;;;;;27.00;14.63;;;-5.30;92.90;;;;;;5056125;28;20202;-78
2024/01/09 07:12:52;;;;;;;26.43;15.10;;;-5.30;92.90;;;;;;5049123;28;20208;-78
2024/01/09 07:15:18;;;;;;;31.87;16.20;;;-5.30;92.90;;;;;;5056680;28;20199;-78
2024/01/09 07:17:47;;;;;;;26.93;14.23;;;-5.40;92.90;;;;;;5053875;28;20219;-81
2024/01/09 07:20:13;;;;;;;29.30;14.50;;;-5.40;92.90;;;;;;5061410;28;20195;-79
2024/01/09 07:22:40;;;;;;;28.07;14.90;;;-5.30;92.90;;;;;;5054629;28;20209;-78
2024/01/09 07:25:07;;;;;;;28.17;14.70;;;-5.30;92.90;;;;;;5057762;28;20202;-78
2024/01/09 07:30:33;;;;;;;26.93;15.40;;;-5.30;92.60;;;;;;5040411;28;20212;-83
2024/01/09 07:33:01;;;;;;;26.83;15.17;;;-5.30;92.30;;;;;;5054884;28;20194;-78
2024/01/09 07:35:28;;;;;;;28.27;15.47;;;-5.30;92.20;;;;;;5052371;28;20197;-78
2024/01/09 07:37:55;;;;;;;27.63;14.43;;;-5.40;92.50;;;;;;5064121;28;20203;-78
2024/01/09 07:40:21;;;;;;;27.27;14.27;;;-5.50;92.00;;;;;;5059064;28;20200;-78
2024/01/09 07:42:48;;;;;;;26.73;14.67;;;-5.40;92.00;;;;;;5052794;28;20202;-78
2024/01/09 07:45:15;;;;;;;27.00;14.30;;;-5.50;92.20;;;;;;5052579;28;20421;-78
2024/01/09 07:47:42;;;;;;;26.37;14.47;;;-5.40;91.90;;;;;;5054886;28;20285;-78
2024/01/09 07:50:28;;;;;;;25.43;14.73;;;-5.30;91.30;;;;;;5056881;28;20195;-84
2024/01/09 07:52:55;;;;;;;26.80;14.13;;;-5.30;91.10;;;;;;5053171;28;20198;-78
2024/01/09 07:55:21;;;;;;;28.87;15.00;;;-5.30;90.90;;;;;;5053669;28;20198;-79
2024/01/09 07:57:48;;;;;;;24.00;14.17;;;-5.30;90.20;;;;;;5060554;28;20190;-78
2024/01/09 08:00:15;;;;;;;28.03;14.87;;;-5.40;90.50;;;;;;5050355;28;20204;-78
2024/01/09 08:02:42;;;;;;;27.90;14.50;;;-5.40;90.60;;;;;;5050679;28;20202;-79
2024/01/09 08:05:09;;;;;;;28.53;15.13;;;-5.40;90.20;;;;;;5046167;28;20254;-82
2024/01/09 08:07:37;;;;;;;26.07;13.73;;;-5.40;90.20;;;;;;5052680;28;20205;-78
2024/01/09 08:10:05;;;;;;;28.37;14.77;;;-5.40;90.20;;;;;;5061899;28;20201;-78
2024/01/09 08:12:39;;;;;;;26.03;14.17;;;-5.40;90.20;;;;;;5062284;28;20956;-83
2024/01/09 08:15:07;;;;;;;26.27;14.67;;;-5.40;90.20;;;;;;5055436;28;20233;-79
2024/01/09 08:17:34;;;;;;;28.37;15.13;;;-5.40;90.10;;;;;;5048584;28;20189;-79
2024/01/09 08:20:01;;;;;;;26.67;14.50;;;-5.50;88.70;;;;;;5054931;28;20670;-78
2024/01/09 08:22:28;;;;;;;26.23;14.03;;;-5.60;90.00;;;;;;5051158;28;20229;-81
2024/01/09 08:24:56;;;;;;;26.83;14.57;;;-5.40;90.10;;;;;;5057112;28;20194;-78
2024/01/09 08:27:23;;;;;;;26.83;14.73;;;-5.30;88.80;;;;;;5055834;28;20220;-78
2024/01/09 08:29:49;;;;;;;25.90;14.03;;;-5.20;87.20;;;;;;5060129;28;20566;-78
2024/01/09 08:32:18;;;;;;;25.67;14.50;;;-5.10;86.20;;;;;;5056473;28;20213;-80
2024/01/09 08:37:27;;;;;;;25.60;14.23;;;-5.10;85.10;;;;;;5050115;28;20951;-78
2024/01/09 08:39:56;;;;;;;27.17;14.27;;;-5.10;85.60;;;;;;5051209;28;20200;-78
2024/01/09 08:42:22;;;;;;;31.53;14.60;;;-5.10;85.80;;;;;;5056894;28;20229;-80
2024/01/09 08:44:52;;;;;;;26.70;13.63;;;-5.10;85.40;;;;;;5050670;28;20229;-78
2024/01/09 08:47:19;;;;;;;27.23;14.80;;;-5.00;86.30;;;;;;5055703;28;20198;-79
2024/01/09 08:49:45;;;;;;;30.37;14.10;;;-5.10;84.20;;;;;;5054378;28;20709;-78
2024/01/09 08:52:12;;;;;;;26.40;14.17;;;-5.10;84.00;;;;;;5056601;28;20306;-77
2024/01/09 08:54:40;;;;;;;24.83;14.00;;;-5.10;84.00;;;;;;5064275;28;20658;-78
2024/01/09 08:57:08;;;;;;;27.67;14.30;;;-5.00;84.40;;;;;;5051453;28;20278;-80
2024/01/09 08:59:34;;;;;;;25.97;14.33;;;-4.90;82.80;;;;;;5042168;28;20897;-78
2024/01/09 09:02:01;;;;;;;27.23;14.53;;;-5.00;82.70;;;;;;5054501;28;20257;-78
2024/01/09 09:04:28;;;;;;;23.33;13.90;;;-5.10;82.60;;;;;;5047965;28;20221;-78
2024/01/09 09:06:55;;;;;;;29.40;14.63;;;-5.10;82.60;;;;;;5059097;28;20199;-80
2024/01/09 09:09:21;;;;;;;27.60;13.33;;;-5.00;82.70;;;;;;5056439;28;20204;-78
2024/01/09 09:11:48;;;;;;;24.57;13.70;;;-4.90;82.80;;;;;;5049775;28;20209;-78
2024/01/09 09:14:16;;;;;;;25.83;14.20;;;-4.90;83.60;;;;;;5053917;28;20199;-78
2024/01/09 09:16:46;;;;;;;27.87;14.73;;;-5.10;82.60;;;;;;5049258;28;20205;-78
2024/01/09 09:19:12;;;;;;;28.50;14.83;;;-5.10;82.60;;;;;;5043611;28;20204;-78
2024/01/09 09:21:39;;;;;;;24.87;13.67;;;-5.10;82.60;;;;;;5049633;28;20219;-78
2024/01/09 09:24:18;;;;;;;27.83;14.57;;;-4.90;82.80;;;;;;5049218;28;20194;-80
2024/01/09 09:26:45;;;;;;;24.90;14.00;;;-5.00;82.70;;;;;;5052602;28;20619;-79
2024/01/09 09:29:12;;;;;;;25.07;14.07;;;-4.80;82.80;;;;;;5054062;28;20205;-79
2024/01/09 09:31:49;;;;;;;27.00;13.97;;;-4.80;82.20;;;;;;5059779;28;20202;-78
2024/01/09 09:34:15;;;;;;;25.30;14.27;;;-4.60;82.90;;;;;;5060239;28;20661;-79
2024/01/09 09:36:42;;;;;;;26.37;14.23;;;-4.70;81.00;;;;;;5059574;28;20212;-78
2024/01/09 09:39:10;;;;;;;29.40;14.73;;;-4.70;83.70;;;;;;5051314;28;20197;-79
2024/01/09 09:41:38;;;;;;;25.93;15.00;;;-4.60;80.90;;;;;;5059446;28;20306;-79
2024/01/09 09:44:07;;;;;;;30.40;14.77;;;-4.70;82.80;;;;;;5049846;28;20208;-80
2024/01/09 09:46:37;;;;;;;27.93;14.13;;;-4.80;82.80;;;;;;5053118;28;20200;-78
2024/01/09 09:49:06;;;;;;;22.60;13.87;;;-4.50;81.30;;;;;;5044727;28;20222;-78
2024/01/09 09:51:34;;;;;;;24.73;14.33;;;-4.30;80.10;;;;;;5063541;28;20199;-79
2024/01/09 09:54:16;;;;;;;25.80;14.63;;;-4.40;81.80;;;;;;5050334;28;20216;-77
2024/01/09 09:56:44;;;;;;;25.30;13.27;;;-4.60;80.30;;;;;;5049843;28;20216;-77
2024/01/09 09:59:16;;;;;;;26.57;14.27;;;-4.40;81.90;;;;;;5049561;28;20199;-77
2024/01/09 10:01:45;;;;;;;23.53;12.80;;;-4.30;80.50;;;;;;5050165;28;20237;-78
2024/01/09 10:04:29;;;;;;;25.77;14.03;;;-4.20;80.70;;;;;;5049935;28;20220;-83
2024/01/09 10:06:56;;;;;;;24.67;13.13;;;-4.20;79.00;;;;;;5033817;28;20232;-77
2024/01/09 10:09:28;;;;;;;25.63;13.33;;;-4.10;78.30;;;;;;5051913;28;20212;-79
2024/01/09 10:11:55;;;;;;;26.80;13.73;;;-4.10;78.30;;;;;;5060515;28;20199;-76
2024/01/09 10:14:22;;;;;;;29.43;14.73;;;-4.10;78.10;;;;;;5056127;28;20205;-78
2024/01/09 10:16:50;;;;;;;22.90;13.53;;;-4.10;79.10;;;;;;5060304;28;20210;-77
2024/01/09 10:19:18;;;;;;;24.03;14.70;;;-4.30;79.10;;;;;;5047229;28;20267;-78
2024/01/09 10:24:26;;;;;;;26.30;14.90;;;-4.20;80.60;;;;;;5045190;28;20208;-79
2024/01/09 10:26:54;;;;;;;28.37;14.27;;;-4.50;80.50;;;;;;5066285;28;20200;-78
2024/01/09 10:29:21;;;;;;;27.07;14.10;;;-4.40;80.30;;;;;;5043664;28;20287;-77
2024/01/09 10:31:48;;;;;;;25.93;15.00;;;-4.20;79.90;;;;;;5057364;28;20292;-78
2024/01/09 10:34:14;;;;;;;27.43;14.37;;;-4.00;78.90;;;;;;5062651;28;20210;-77
2024/01/09 10:36:43;;;;;;;25.53;14.33;;;-4.20;79.40;;;;;;5056455;28;20212;-77
2024/01/09 10:39:11;;;;;;;25.70;14.03;;;-4.20;79.70;;;;;;5053726;28;20828;-77
2024/01/09 10:41:39;;;;;;;30.10;14.10;;;-4.00;78.90;;;;;;5057046;28;20316;-80
2024/01/09 10:44:06;;;;;;;24.00;13.77;;;-4.20;79.70;;;;;;5055933;28;20226;-77
2024/01/09 10:46:35;;;;;;;28.37;14.67;;;-4.00;80.10;;;;;;5055626;28;20200;-76
2024/01/09 10:49:03;;;;;;;23.40;13.57;;;-3.80;77.60;;;;;;5061881;28;20195;-78
2024/01/09 10:51:31;;;;;;;26.30;14.20;;;-3.90;77.50;;;;;;5059368;28;20224;-78
2024/01/09 10:54:02;;;;;;;25.63;13.90;;;-3.70;77.60;;;;;;5055839;28;20197;-77
2024/01/09 10:56:29;;;;;;;25.57;13.80;;;-3.70;77.50;;;;;;5055561;28;20211;-78
2024/01/09 10:58:58;;;;;;;24.40;13.17;;;-3.60;77.70;;;;;;5061475;28;20819;-77
2024/01/09 11:01:25;;;;;;;22.27;12.70;;;-3.60;75.80;;;;;;5051596;28;20548;-76
2024/01/09 11:03:51;;;;;;;30.57;14.63;;;-3.50;75.60;;;;;;5056285;28;20221;-77
2024/01/09 11:06:21;;;;;;;25.37;14.23;;;-3.40;75.70;;;;;;5056303;28;20205;-78
2024/01/09 11:09:04;;;;;;;25.47;14.10;;;-3.30;75.30;;;;;;5061174;28;20210;-77
2024/01/09 11:11:32;;;;;;;26.73;14.33;;;-3.10;73.70;;;;;;5051410;28;20194;-76
2024/01/09 11:14:06;;;;;;;24.47;14.10;;;-2.90;73.60;;;;;;5063014;28;20208;-75
2024/01/09 11:16:36;;;;;;;22.97;13.47;;;-3.30;71.10;;;;;;5056228;28;20204;-76
2024/01/09 11:21:52;;;;;;;27.93;14.27;;;-3.50;75.10;;;;;;5048157;28;20276;-75
2024/01/09 11:24:28;;;;;;;25.73;14.63;;;-3.40;76.30;;;;;;5060248;28;20665;-76
2024/01/09 11:27:10;;;;;;;25.37;13.80;;;-3.30;76.70;;;;;;5058652;28;20193;-76
2024/01/09 11:29:50;;;;;;;24.50;14.17;;;-3.50;77.20;;;;;;5061292;28;20189;-76
2024/01/09 11:32:25;;;;;;;25.10;13.53;;;-3.80;77.80;;;;;;5058680;28;20213;-79
2024/01/09 11:35:09;;;;;;;22.17;12.90;;;-3.90;78.90;;;;;;5063163;28;20201;-76
2024/01/09 11:38:00;;;;;;;25.13;14.00;;;-4.00;80.20;;;;;;5055635;28;20212;-78
2024/01/09 11:40:30;;;;;;;26.47;14.10;;;-4.20;81.60;;;;;;5037603;28;20197;-80
2024/01/09 11:43:03;;;;;;;25.40;12.93;;;-4.30;80.90;;;;;;5052745;28;20225;-82
2024/01/09 11:45:29;;;;;;;27.40;13.73;;;-4.40;81.30;;;;;;5050618;28;20261;-80
2024/01/09 11:50:41;;;;;;;25.60;13.77;;;-4.10;81.00;;;;;;5051772;28;20195;-77
2024/01/09 11:53:09;;;;;;;25.50;13.33;;;-3.70;78.00;;;;;;5056730;28;20637;-77
2024/01/09 11:55:37;;;;;;;25.47;14.03;;;-3.50;71.50;;;;;;5056935;28;20254;-78
2024/01/09 11:58:34;;;;;;;23.30;13.77;;;-3.70;74.30;;;;;;5051520;28;20970;-79
2024/01/09 12:01:03;;;;;;;24.90;13.37;;;-3.50;73.20;;;;;;5055093;28;20190;-78
2024/01/09 12:03:30;;;;;;;24.77;13.13;;;-3.30;71.90;;;;;;5054956;28;20227;-75
2024/01/09 12:06:05;;;;;;;26.07;13.63;;;-3.20;68.40;;;;;;5054485;28;20196;-77
2024/01/09 12:08:31;;;;;;;25.30;13.47;;;-3.20;69.80;;;;;;5059300;28;20199;-77
2024/01/09 12:11:00;;;;;;;29.93;14.93;;;-3.20;70.10;;;;;;5049825;28;20194;-79
2024/01/09 12:13:26;;;;;;;23.77;13.50;;;-3.20;69.20;;;;;;5056407;28;20197;-79
2024/01/09 12:15:53;;;;;;;26.53;13.63;;;-3.10;69.80;;;;;;5060145;28;20189;-77
2024/01/09 12:18:20;;;;;;;22.57;12.93;;;-3.20;68.90;;;;;;5051761;28;20204;-78
2024/01/09 12:20:48;;;;;;;24.27;13.67;;;-3.30;69.80;;;;;;5056548;28;20573;-77
2024/01/09 12:23:15;;;;;;;26.40;13.20;;;-3.30;72.70;;;;;;5057650;28;20229;-82
2024/01/09 12:25:44;;;;;;;24.30;13.77;;;-3.30;70.20;;;;;;5050824;28;20265;-76
2024/01/09 12:28:12;;;;;;;24.23;13.67;;;-3.30;72.00;;;;;;5050703;28;20190;-77
2024/01/09 12:30:39;;;;;;;25.33;13.80;;;-3.20;71.30;;;;;;5056438;28;20199;-76
2024/01/09 12:33:06;;;;;;;24.27;13.33;;;-3.40;71.00;;;;;;5051376;28;20200;-77
2024/01/09 12:35:33;;;;;;;23.03;13.80;;;-3.40;71.00;;;;;;5056010;28;20216;-78
2024/01/09 12:38:02;;;;;;;26.17;13.60;;;-3.50;73.00;;;;;;5051654;28;20209;-77
2024/01/09 12:40:29;;;;;;;23.77;13.13;;;-3.30;72.10;;;;;;5051628;28;20536;-77
2024/01/09 12:43:10;;;;;;;27.70;14.10;;;-3.50;73.70;;;;;;5052330;28;20232;-78
2024/01/09 12:45:51;;;;;;;22.50;12.60;;;-3.70;74.60;;;;;;5053533;28;20568;-77
2024/01/09 12:48:18;;;;;;;25.87;13.13;;;-3.60;72.90;;;;;;5053109;28;20343;-77
2024/01/09 12:50:56;;;;;;;25.23;14.13;;;-3.60;73.60;;;;;;5057740;28;20664;-77